Data Viewer
| City | State | Eastern Time | Source | Temp | DewPt | RH | BP | 5 Min Precip | Wind Speed | Wind Dir | 5 Min Wind Max | 5 Min Wind Max Dir |
|---|---|---|---|---|---|---|---|---|---|---|---|---|
| Piscataway 1 | NJ | 2026-05-04 18:15 | NJDOT | 73 | 38 | 27 | 13 | |||||
| Piscataway 1 | NJ | 2026-05-05 10:45 | NJDOT | 75 | 51 | 43 | 9 | |||||
| Piscataway 1 | NJ | 2026-05-05 09:40 | NJDOT | 70 | 51 | 51 | 10 | |||||
| Piscataway 1 | NJ | 2026-05-05 09:45 | NJDOT | 71 | 51 | 50 | 10 | |||||
| Piscataway 1 | NJ | 2026-05-05 09:50 | NJDOT | 71 | 51 | 49 | 10 | |||||
| Piscataway 1 | NJ | 2026-05-05 10:00 | NJDOT | 71 | 51 | 49 | 10 | |||||
| Piscataway 1 | NJ | 2026-05-05 10:05 | NJDOT | 72 | 51 | 48 | 10 | |||||
| Piscataway 1 | NJ | 2026-05-05 10:10 | NJDOT | 72 | 51 | 46 | 10 | |||||
| Piscataway 1 | NJ | 2026-05-05 10:15 | NJDOT | 73 | 50 | 44 | 10 | |||||
| Piscataway 1 | NJ | 2026-05-05 10:20 | NJDOT | 73 | 51 | 44 | 11 | |||||
| Piscataway 1 | NJ | 2026-05-05 10:25 | NJDOT | 74 | 51 | 43 | 11 | |||||
| Piscataway 1 | NJ | 2026-05-05 10:30 | NJDOT | 74 | 50 | 43 | 10 | |||||
| Piscataway 1 | NJ | 2026-05-05 10:35 | NJDOT | 74 | 50 | 42 | 11 | |||||
| Piscataway 1 | NJ | 2026-05-05 10:40 | NJDOT | 74 | 50 | 43 | 11 | |||||
| Piscataway 1 | NJ | 2026-05-05 10:50 | NJDOT | 76 | 50 | 40 | 9 | |||||
| Piscataway 1 | NJ | 2026-05-05 09:30 | NJDOT | 69 | 52 | 54 | 11 | |||||
| Piscataway 1 | NJ | 2026-05-05 11:00 | NJDOT | 76 | 50 | 40 | 7 | |||||
| Piscataway 1 | NJ | 2026-05-05 11:05 | NJDOT | 76 | 51 | 41 | 5 | |||||
| Piscataway 1 | NJ | 2026-05-05 11:10 | NJDOT | 77 | 52 | 41 | 5 | |||||
| Piscataway 1 | NJ | 2026-05-05 11:15 | NJDOT | 78 | 50 | 38 | 8 | |||||
| Piscataway 1 | NJ | 2026-05-05 11:20 | NJDOT | 78 | 50 | 38 | 8 | |||||
| Piscataway 1 | NJ | 2026-05-05 11:25 | NJDOT | 78 | 50 | 37 | 11 | |||||
| Piscataway 1 | NJ | 2026-05-05 11:30 | NJDOT | 78 | 51 | 39 | 11 | |||||
| Piscataway 1 | NJ | 2026-05-05 11:35 | NJDOT | 79 | 50 | 36 | 11 | |||||
| Piscataway 1 | NJ | 2026-05-05 11:40 | NJDOT | 79 | 51 | 37 | 11 | |||||
| Piscataway 1 | NJ | 2026-05-05 11:45 | NJDOT | 78 | 51 | 38 | 10 | |||||
| Piscataway 1 | NJ | 2026-05-05 11:50 | NJDOT | 79 | 52 | 39 | 9 | |||||
| Piscataway 1 | NJ | 2026-05-05 12:00 | NJDOT | 79 | 51 | 37 | 13 | |||||
| Piscataway 1 | NJ | 2026-05-05 12:05 | NJDOT | 79 | 50 | 36 | 13 | |||||
| Piscataway 1 | NJ | 2026-05-05 09:35 | NJDOT | 69 | 51 | 52 | 11 | |||||
| Piscataway 1 | NJ | 2026-05-05 09:25 | NJDOT | 69 | 51 | 54 | 10 | |||||
| Piscataway 1 | NJ | 2026-05-05 12:15 | NJDOT | 80 | 51 | 36 | 9 | |||||
| Piscataway 1 | NJ | 2026-05-05 08:00 | NJDOT | 63 | 51 | 64 | 0 | |||||
| Piscataway 1 | NJ | 2026-05-05 06:30 | NJDOT | 59 | 50 | 72 | 0 | |||||
| Piscataway 1 | NJ | 2026-05-05 06:35 | NJDOT | 59 | 50 | 71 | 0 | |||||
| Piscataway 1 | NJ | 2026-05-05 07:00 | NJDOT | 60 | 50 | 69 | 0 | |||||
| Piscataway 1 | NJ | 2026-05-05 07:05 | NJDOT | 61 | 51 | 69 | 0 | |||||
| Piscataway 1 | NJ | 2026-05-05 07:10 | NJDOT | 61 | 51 | 69 | 0 | |||||
| Piscataway 1 | NJ | 2026-05-05 07:15 | NJDOT | 61 | 51 | 70 | 0 | |||||
| Piscataway 1 | NJ | 2026-05-05 07:20 | NJDOT | 61 | 51 | 70 | 0 | |||||
| Piscataway 1 | NJ | 2026-05-05 07:25 | NJDOT | 61 | 50 | 67 | 0 | |||||
| Piscataway 1 | NJ | 2026-05-05 07:30 | NJDOT | 61 | 50 | 67 | 0 | |||||
| Piscataway 1 | NJ | 2026-05-05 07:35 | NJDOT | 61 | 50 | 67 | 0 | |||||
| Piscataway 1 | NJ | 2026-05-05 07:40 | NJDOT | 62 | 50 | 65 | 0 | |||||
| Piscataway 1 | NJ | 2026-05-05 07:45 | NJDOT | 62 | 50 | 65 | 0 | |||||
| Piscataway 1 | NJ | 2026-05-05 07:50 | NJDOT | 62 | 50 | 64 | 0 | |||||
| Piscataway 1 | NJ | 2026-05-05 08:05 | NJDOT | 63 | 51 | 63 | 0 | |||||
| Piscataway 1 | NJ | 2026-05-05 09:20 | NJDOT | 68 | 51 | 54 | 10 | |||||
| Piscataway 1 | NJ | 2026-05-05 08:10 | NJDOT | 63 | 51 | 63 | 0 | |||||
| Piscataway 1 | NJ | 2026-05-05 08:15 | NJDOT | 64 | 51 | 64 | 0 | |||||
| Piscataway 1 | NJ | 2026-05-05 08:20 | NJDOT | 64 | 51 | 63 | 8 | |||||
| Piscataway 1 | NJ | 2026-05-05 08:25 | NJDOT | 64 | 51 | 62 | 10 | |||||
| Piscataway 1 | NJ | 2026-05-05 08:30 | NJDOT | 64 | 51 | 62 | 10 | |||||
| Piscataway 1 | NJ | 2026-05-05 08:35 | NJDOT | 65 | 51 | 62 | 5 | |||||
| Piscataway 1 | NJ | 2026-05-05 08:40 | NJDOT | 65 | 51 | 60 | 6 | |||||
| Piscataway 1 | NJ | 2026-05-05 08:45 | NJDOT | 65 | 51 | 60 | 6 | |||||
| Piscataway 1 | NJ | 2026-05-05 08:50 | NJDOT | 66 | 51 | 58 | 7 | |||||
| Piscataway 1 | NJ | 2026-05-05 09:00 | NJDOT | 67 | 51 | 55 | 10 | |||||
| Piscataway 1 | NJ | 2026-05-05 09:05 | NJDOT | 67 | 51 | 56 | 11 | |||||
| Piscataway 1 | NJ | 2026-05-05 09:10 | NJDOT | 67 | 51 | 56 | 10 | |||||
| Piscataway 1 | NJ | 2026-05-05 09:15 | NJDOT | 68 | 51 | 54 | 10 | |||||
| Piscataway 1 | NJ | 2026-05-05 12:10 | NJDOT | 80 | 52 | 37 | 13 | |||||
| Piscataway 1 | NJ | 2026-05-05 12:20 | NJDOT | 80 | 50 | 36 | 12 | |||||
| Piscataway 1 | NJ | 2026-05-05 06:20 | NJDOT | 59 | 50 | 73 | 0 | |||||
| Piscataway 1 | NJ | 2026-05-05 16:40 | NJDOT | 84 | 45 | 25 | 20 | |||||
| Piscataway 1 | NJ | 2026-05-05 15:35 | NJDOT | 84 | 47 | 27 | 15 | |||||
| Piscataway 1 | NJ | 2026-05-05 15:40 | NJDOT | 84 | 47 | 27 | 19 | |||||
| Piscataway 1 | NJ | 2026-05-05 15:45 | NJDOT | 84 | 46 | 26 | 22 | |||||
| Piscataway 1 | NJ | 2026-05-05 15:50 | NJDOT | 84 | 46 | 26 | 22 | |||||
| Piscataway 1 | NJ | 2026-05-05 16:00 | NJDOT | 84 | 45 | 25 | 17 | |||||
| Piscataway 1 | NJ | 2026-05-05 16:05 | NJDOT | 84 | 46 | 26 | 17 | |||||
| Piscataway 1 | NJ | 2026-05-05 16:10 | NJDOT | 84 | 44 | 24 | 19 | |||||
| Piscataway 1 | NJ | 2026-05-05 16:15 | NJDOT | 83 | 43 | 23 | 27 | |||||
| Piscataway 1 | NJ | 2026-05-05 16:20 | NJDOT | 84 | 44 | 24 | 27 | |||||
| Piscataway 1 | NJ | 2026-05-05 16:25 | NJDOT | 84 | 44 | 24 | 20 | |||||
| Piscataway 1 | NJ | 2026-05-05 16:30 | NJDOT | 84 | 45 | 25 | 22 | |||||
| Piscataway 1 | NJ | 2026-05-05 16:35 | NJDOT | 84 | 44 | 24 | 22 | |||||
| Piscataway 1 | NJ | 2026-05-05 16:45 | NJDOT | 84 | 43 | 23 | 22 | |||||
| Piscataway 1 | NJ | 2026-05-05 15:25 | NJDOT | 84 | 47 | 27 | 19 | |||||
| Piscataway 1 | NJ | 2026-05-05 16:50 | NJDOT | 84 | 44 | 24 | 22 | |||||
| Piscataway 1 | NJ | 2026-05-05 17:00 | NJDOT | 84 | 43 | 23 | 21 | |||||
| Piscataway 1 | NJ | 2026-05-05 17:05 | NJDOT | 84 | 43 | 23 | 23 | |||||
| Piscataway 1 | NJ | 2026-05-05 17:10 | NJDOT | 84 | 44 | 24 | 23 | |||||
| Piscataway 1 | NJ | 2026-05-05 17:15 | NJDOT | 84 | 43 | 23 | 29 | |||||
| Piscataway 1 | NJ | 2026-05-05 17:20 | NJDOT | 84 | 41 | 22 | 29 | |||||
| Piscataway 1 | NJ | 2026-05-05 17:25 | NJDOT | 84 | 41 | 22 | 23 | |||||
| Piscataway 1 | NJ | 2026-05-05 17:30 | NJDOT | 83 | 41 | 22 | 21 | |||||
| Piscataway 1 | NJ | 2026-05-05 17:35 | NJDOT | 83 | 40 | 21 | 20 | |||||
| Piscataway 1 | NJ | 2026-05-05 17:40 | NJDOT | 83 | 40 | 22 | 25 | |||||
| Piscataway 1 | NJ | 2026-05-05 17:45 | NJDOT | 83 | 41 | 22 | 25 | |||||
| Piscataway 1 | NJ | 2026-05-05 17:50 | NJDOT | 83 | 40 | 22 | 26 | |||||
| Piscataway 1 | NJ | 2026-05-05 18:00 | NJDOT | 83 | 41 | 22 | 22 | |||||
| Piscataway 1 | NJ | 2026-05-05 15:30 | NJDOT | 85 | 48 | 27 | 21 | |||||
| Piscataway 1 | NJ | 2026-05-05 15:20 | NJDOT | 83 | 46 | 27 | 19 | |||||
| Piscataway 1 | NJ | 2026-05-05 12:25 | NJDOT | 80 | 52 | 38 | 12 | |||||
| Piscataway 1 | NJ | 2026-05-05 13:50 | NJDOT | 82 | 52 | 35 | 13 | |||||
| Piscataway 1 | NJ | 2026-05-05 12:30 | NJDOT | 79 | 51 | 37 | 11 | |||||
| Piscataway 1 | NJ | 2026-05-05 12:35 | NJDOT | 80 | 51 | 37 | 11 | |||||
| Piscataway 1 | NJ | 2026-05-05 12:40 | NJDOT | 81 | 51 | 36 | 9 | |||||
| Piscataway 1 | NJ | 2026-05-05 13:00 | NJDOT | 80 | 51 | 35 | 14 | |||||
| Piscataway 1 | NJ | 2026-05-05 13:05 | NJDOT | 80 | 50 | 35 | 13 | |||||
| Piscataway 1 | NJ | 2026-05-05 13:10 | NJDOT | 81 | 50 | 34 | 13 | |||||
| Piscataway 1 | NJ | 2026-05-05 13:15 | NJDOT | 81 | 51 | 35 | 13 | |||||
| Piscataway 1 | NJ | 2026-05-05 13:20 | NJDOT | 82 | 51 | 34 | 10 | |||||
| Piscataway 1 | NJ | 2026-05-05 13:25 | NJDOT | 82 | 51 | 34 | 14 | |||||
| Piscataway 1 | NJ | 2026-05-05 13:30 | NJDOT | 82 | 50 | 33 | 14 | |||||
| Piscataway 1 | NJ | 2026-05-05 13:35 | NJDOT | 82 | 50 | 33 | 18 | |||||
| Piscataway 1 | NJ | 2026-05-05 13:40 | NJDOT | 82 | 50 | 33 | 18 | |||||
| Piscataway 1 | NJ | 2026-05-05 13:45 | NJDOT | 82 | 51 | 34 | 14 | |||||
| Piscataway 1 | NJ | 2026-05-05 14:00 | NJDOT | 83 | 50 | 32 | 12 | |||||
| Piscataway 1 | NJ | 2026-05-05 15:15 | NJDOT | 84 | 47 | 26 | 15 | |||||
| Piscataway 1 | NJ | 2026-05-05 14:05 | NJDOT | 83 | 49 | 30 | 18 | |||||
| Piscataway 1 | NJ | 2026-05-05 14:10 | NJDOT | 82 | 47 | 30 | 20 | |||||
| Piscataway 1 | NJ | 2026-05-05 14:15 | NJDOT | 83 | 48 | 29 | 20 | |||||
| Piscataway 1 | NJ | 2026-05-05 14:20 | NJDOT | 83 | 48 | 29 | 16 | |||||
| Piscataway 1 | NJ | 2026-05-05 14:25 | NJDOT | 83 | 48 | 29 | 15 | |||||
| Piscataway 1 | NJ | 2026-05-05 14:30 | NJDOT | 83 | 49 | 30 | 15 | |||||
| Piscataway 1 | NJ | 2026-05-05 14:35 | NJDOT | 83 | 49 | 30 | 20 | |||||
| Piscataway 1 | NJ | 2026-05-05 14:40 | NJDOT | 83 | 47 | 28 | 20 | |||||
| Piscataway 1 | NJ | 2026-05-05 14:45 | NJDOT | 84 | 47 | 28 | 20 | |||||
| Piscataway 1 | NJ | 2026-05-05 14:50 | NJDOT | 83 | 47 | 28 | 16 | |||||
| Piscataway 1 | NJ | 2026-05-05 15:00 | NJDOT | 84 | 48 | 28 | 15 | |||||
| Piscataway 1 | NJ | 2026-05-05 15:05 | NJDOT | 84 | 48 | 28 | 19 | |||||
| Piscataway 1 | NJ | 2026-05-05 15:10 | NJDOT | 84 | 47 | 27 | 19 | |||||
| Piscataway 1 | NJ | 2026-05-05 06:25 | NJDOT | 59 | 50 | 73 | 0 | |||||
| Piscataway 1 | NJ | 2026-05-05 06:15 | NJDOT | 58 | 50 | 75 | 0 | |||||
| Piscataway 1 | NJ | 2026-05-04 18:20 | NJDOT | 73 | 38 | 27 | 10 | |||||
| Piscataway 1 | NJ | 2026-05-04 22:35 | NJDOT | 63 | 44 | 48 | 6 | |||||
| Piscataway 1 | NJ | 2026-05-04 21:30 | NJDOT | 66 | 40 | 38 | 7 | |||||
| Piscataway 1 | NJ | 2026-05-04 21:35 | NJDOT | 65 | 40 | 40 | 7 | |||||
| Piscataway 1 | NJ | 2026-05-04 21:40 | NJDOT | 65 | 40 | 40 | 3 | |||||
| Piscataway 1 | NJ | 2026-05-04 21:45 | NJDOT | 65 | 41 | 41 | 6 | |||||
| Piscataway 1 | NJ | 2026-05-04 21:50 | NJDOT | 65 | 42 | 42 | 6 | |||||
| Piscataway 1 | NJ | 2026-05-04 22:00 | NJDOT | 64 | 42 | 45 | 11 | |||||
| Piscataway 1 | NJ | 2026-05-04 22:05 | NJDOT | 64 | 43 | 46 | 8 | |||||
| Piscataway 1 | NJ | 2026-05-04 22:10 | NJDOT | 64 | 43 | 46 | 8 | |||||
| Piscataway 1 | NJ | 2026-05-04 22:15 | NJDOT | 64 | 43 | 46 | 7 | |||||
| Piscataway 1 | NJ | 2026-05-04 22:20 | NJDOT | 64 | 43 | 47 | 7 | |||||
| Piscataway 1 | NJ | 2026-05-04 22:25 | NJDOT | 64 | 44 | 48 | 6 | |||||
| Piscataway 1 | NJ | 2026-05-04 22:30 | NJDOT | 63 | 44 | 48 | 5 | |||||
| Piscataway 1 | NJ | 2026-05-04 22:40 | NJDOT | 63 | 44 | 49 | 7 | |||||
| Piscataway 1 | NJ | 2026-05-04 21:20 | NJDOT | 66 | 40 | 38 | 2 | |||||
| Piscataway 1 | NJ | 2026-05-04 22:45 | NJDOT | 63 | 44 | 50 | 7 | |||||
| Piscataway 1 | NJ | 2026-05-04 22:50 | NJDOT | 63 | 44 | 51 | 6 | |||||
| Piscataway 1 | NJ | 2026-05-04 23:00 | NJDOT | 62 | 45 | 52 | 4 | |||||
| Piscataway 1 | NJ | 2026-05-04 23:05 | NJDOT | 62 | 45 | 53 | 4 | |||||
| Piscataway 1 | NJ | 2026-05-04 23:10 | NJDOT | 62 | 45 | 53 | 5 | |||||
| Piscataway 1 | NJ | 2026-05-04 23:15 | NJDOT | 62 | 45 | 54 | 5 | |||||
| Piscataway 1 | NJ | 2026-05-04 23:20 | NJDOT | 62 | 45 | 55 | 4 | |||||
| Piscataway 1 | NJ | 2026-05-04 23:25 | NJDOT | 62 | 46 | 55 | 7 | |||||
| Piscataway 1 | NJ | 2026-05-04 23:30 | NJDOT | 62 | 46 | 56 | 7 | |||||
| Piscataway 1 | NJ | 2026-05-04 23:35 | NJDOT | 61 | 46 | 56 | 4 | |||||
| Piscataway 1 | NJ | 2026-05-04 23:40 | NJDOT | 61 | 46 | 57 | 7 | |||||
| Piscataway 1 | NJ | 2026-05-04 23:45 | NJDOT | 61 | 46 | 57 | 7 | |||||
| Piscataway 1 | NJ | 2026-05-04 23:50 | NJDOT | 61 | 46 | 57 | 6 | |||||
| Piscataway 1 | NJ | 2026-05-04 21:25 | NJDOT | 66 | 41 | 40 | 4 | |||||
| Piscataway 1 | NJ | 2026-05-04 21:15 | NJDOT | 66 | 40 | 38 | 2 | |||||
| Piscataway 1 | NJ | 2026-05-05 00:05 | NJDOT | 61 | 46 | 57 | 6 | |||||
| Piscataway 1 | NJ | 2026-05-04 19:45 | NJDOT | 70 | 38 | 31 | 9 | |||||
| Piscataway 1 | NJ | 2026-05-04 18:25 | NJDOT | 72 | 38 | 28 | 10 | |||||
| Piscataway 1 | NJ | 2026-05-04 18:30 | NJDOT | 72 | 37 | 27 | 11 | |||||
| Piscataway 1 | NJ | 2026-05-04 18:35 | NJDOT | 72 | 37 | 28 | 11 | |||||
| Piscataway 1 | NJ | 2026-05-04 18:40 | NJDOT | 72 | 38 | 29 | 12 | |||||
| Piscataway 1 | NJ | 2026-05-04 19:00 | NJDOT | 71 | 37 | 29 | 11 | |||||
| Piscataway 1 | NJ | 2026-05-04 19:05 | NJDOT | 71 | 37 | 29 | 11 | |||||
| Piscataway 1 | NJ | 2026-05-04 19:10 | NJDOT | 71 | 38 | 30 | 14 | |||||
| Piscataway 1 | NJ | 2026-05-04 19:15 | NJDOT | 71 | 37 | 29 | 14 | |||||
| Piscataway 1 | NJ | 2026-05-04 19:20 | NJDOT | 71 | 38 | 29 | 11 | |||||
| Piscataway 1 | NJ | 2026-05-04 19:25 | NJDOT | 71 | 38 | 30 | 11 | |||||
| Piscataway 1 | NJ | 2026-05-04 19:30 | NJDOT | 70 | 38 | 30 | 11 | |||||
| Piscataway 1 | NJ | 2026-05-04 19:35 | NJDOT | 70 | 38 | 31 | 11 | |||||
| Piscataway 1 | NJ | 2026-05-04 19:40 | NJDOT | 70 | 37 | 30 | 9 | |||||
| Piscataway 1 | NJ | 2026-05-04 19:50 | NJDOT | 70 | 39 | 32 | 12 | |||||
| Piscataway 1 | NJ | 2026-05-04 21:10 | NJDOT | 67 | 40 | 37 | 2 | |||||
| Piscataway 1 | NJ | 2026-05-04 20:00 | NJDOT | 69 | 38 | 33 | 6 | |||||
| Piscataway 1 | NJ | 2026-05-04 20:05 | NJDOT | 69 | 38 | 33 | 6 | |||||
| Piscataway 1 | NJ | 2026-05-04 20:10 | NJDOT | 68 | 39 | 33 | 4 | |||||
| Piscataway 1 | NJ | 2026-05-04 20:15 | NJDOT | 68 | 39 | 34 | 7 | |||||
| Piscataway 1 | NJ | 2026-05-04 20:20 | NJDOT | 68 | 39 | 34 | 9 | |||||
| Piscataway 1 | NJ | 2026-05-04 20:25 | NJDOT | 68 | 38 | 34 | 9 | |||||
| Piscataway 1 | NJ | 2026-05-04 20:30 | NJDOT | 68 | 39 | 34 | 7 | |||||
| Piscataway 1 | NJ | 2026-05-04 20:35 | NJDOT | 68 | 39 | 34 | 6 | |||||
| Piscataway 1 | NJ | 2026-05-04 20:40 | NJDOT | 68 | 39 | 35 | 8 | |||||
| Piscataway 1 | NJ | 2026-05-04 20:45 | NJDOT | 68 | 39 | 35 | 8 | |||||
| Piscataway 1 | NJ | 2026-05-04 20:50 | NJDOT | 67 | 39 | 35 | 8 | |||||
| Piscataway 1 | NJ | 2026-05-04 21:00 | NJDOT | 67 | 39 | 36 | 6 | |||||
| Piscataway 1 | NJ | 2026-05-04 21:05 | NJDOT | 67 | 39 | 36 | 3 | |||||
| Piscataway 1 | NJ | 2026-05-05 00:00 | NJDOT | 61 | 46 | 57 | 7 | |||||
| Piscataway 1 | NJ | 2026-05-05 00:10 | NJDOT | 61 | 47 | 58 | 6 | |||||
| Piscataway 1 | NJ | 2026-05-05 06:10 | NJDOT | 58 | 50 | 74 | 3 | |||||
| Piscataway 1 | NJ | 2026-05-05 04:45 | NJDOT | 56 | 50 | 81 | 6 | |||||
| Piscataway 1 | NJ | 2026-05-05 03:40 | NJDOT | 55 | 48 | 77 | 0 | |||||
| Piscataway 1 | NJ | 2026-05-05 03:45 | NJDOT | 55 | 48 | 79 | 0 | |||||
| Piscataway 1 | NJ | 2026-05-05 03:50 | NJDOT | 54 | 49 | 80 | 0 | |||||
| Piscataway 1 | NJ | 2026-05-05 04:00 | NJDOT | 53 | 48 | 83 | 0 | |||||
| Piscataway 1 | NJ | 2026-05-05 04:05 | NJDOT | 54 | 49 | 83 | 0 | |||||
| Piscataway 1 | NJ | 2026-05-05 04:10 | NJDOT | 54 | 49 | 83 | 0 | |||||
| Piscataway 1 | NJ | 2026-05-05 04:15 | NJDOT | 54 | 49 | 83 | 0 | |||||
| Piscataway 1 | NJ | 2026-05-05 04:20 | NJDOT | 54 | 49 | 83 | 0 | |||||
| Piscataway 1 | NJ | 2026-05-05 04:25 | NJDOT | 54 | 49 | 83 | 0 | |||||
| Piscataway 1 | NJ | 2026-05-05 04:30 | NJDOT | 54 | 49 | 82 | 0 | |||||
| Piscataway 1 | NJ | 2026-05-05 04:35 | NJDOT | 55 | 49 | 82 | 0 | |||||
| Piscataway 1 | NJ | 2026-05-05 04:40 | NJDOT | 56 | 50 | 80 | 6 | |||||
| Piscataway 1 | NJ | 2026-05-05 04:50 | NJDOT | 56 | 50 | 80 | 0 | |||||
| Piscataway 1 | NJ | 2026-05-05 03:25 | NJDOT | 56 | 48 | 74 | 0 | |||||
| Piscataway 1 | NJ | 2026-05-05 05:00 | NJDOT | 57 | 50 | 77 | 0 | |||||
| Piscataway 1 | NJ | 2026-05-05 05:05 | NJDOT | 57 | 50 | 76 | 0 | |||||
| Piscataway 1 | NJ | 2026-05-05 05:10 | NJDOT | 57 | 50 | 76 | 0 | |||||
| Piscataway 1 | NJ | 2026-05-05 05:15 | NJDOT | 58 | 50 | 76 | 2 | |||||
| Piscataway 1 | NJ | 2026-05-05 05:20 | NJDOT | 58 | 50 | 74 | 2 | |||||
| Piscataway 1 | NJ | 2026-05-05 05:25 | NJDOT | 58 | 50 | 74 | 1 | |||||
| Piscataway 1 | NJ | 2026-05-05 05:30 | NJDOT | 58 | 50 | 74 | 0 | |||||
| Piscataway 1 | NJ | 2026-05-05 05:35 | NJDOT | 58 | 50 | 75 | 0 | |||||
| Piscataway 1 | NJ | 2026-05-05 05:40 | NJDOT | 58 | 50 | 75 | 0 | |||||
| Piscataway 1 | NJ | 2026-05-05 05:45 | NJDOT | 58 | 50 | 74 | 2 | |||||
| Piscataway 1 | NJ | 2026-05-05 05:50 | NJDOT | 59 | 50 | 73 | 2 | |||||
| Piscataway 1 | NJ | 2026-05-05 06:00 | NJDOT | 59 | 50 | 73 | 4 | |||||
| Piscataway 1 | NJ | 2026-05-05 06:05 | NJDOT | 58 | 50 | 74 | 3 | |||||
| Piscataway 1 | NJ | 2026-05-05 03:35 | NJDOT | 56 | 49 | 76 | 0 | |||||
| Piscataway 1 | NJ | 2026-05-05 03:20 | NJDOT | 57 | 48 | 73 | 0 | |||||
| Piscataway 1 | NJ | 2026-05-05 00:15 | NJDOT | 61 | 47 | 58 | 6 | |||||
| Piscataway 1 | NJ | 2026-05-05 01:50 | NJDOT | 59 | 47 | 65 | 5 | |||||
| Piscataway 1 | NJ | 2026-05-05 00:20 | NJDOT | 61 | 47 | 59 | 9 | |||||
| Piscataway 1 | NJ | 2026-05-05 00:25 | NJDOT | 61 | 47 | 59 | 9 | |||||
| Piscataway 1 | NJ | 2026-05-05 00:30 | NJDOT | 61 | 47 | 60 | 6 | |||||
| Piscataway 1 | NJ | 2026-05-05 01:00 | NJDOT | 60 | 47 | 61 | 8 | |||||
| Piscataway 1 | NJ | 2026-05-05 01:05 | NJDOT | 60 | 47 | 62 | 8 | |||||
| Piscataway 1 | NJ | 2026-05-05 01:10 | NJDOT | 60 | 47 | 62 | 1 | |||||
| Piscataway 1 | NJ | 2026-05-05 01:15 | NJDOT | 60 | 47 | 62 | 3 | |||||
| Piscataway 1 | NJ | 2026-05-05 01:20 | NJDOT | 60 | 47 | 63 | 3 | |||||
| Piscataway 1 | NJ | 2026-05-05 01:25 | NJDOT | 60 | 47 | 63 | 6 | |||||
| Piscataway 1 | NJ | 2026-05-05 01:30 | NJDOT | 60 | 47 | 63 | 6 | |||||
| Piscataway 1 | NJ | 2026-05-05 01:35 | NJDOT | 60 | 47 | 63 | 6 | |||||
| Piscataway 1 | NJ | 2026-05-05 01:40 | NJDOT | 60 | 47 | 64 | 6 | |||||
| Piscataway 1 | NJ | 2026-05-05 01:45 | NJDOT | 60 | 47 | 64 | 5 | |||||
| Piscataway 1 | NJ | 2026-05-05 02:00 | NJDOT | 59 | 48 | 65 | 5 | |||||
| Piscataway 1 | NJ | 2026-05-05 03:15 | NJDOT | 57 | 48 | 72 | 0 | |||||
| Piscataway 1 | NJ | 2026-05-05 02:05 | NJDOT | 59 | 48 | 65 | 5 | |||||
| Piscataway 1 | NJ | 2026-05-05 02:10 | NJDOT | 60 | 48 | 65 | 6 | |||||
| Piscataway 1 | NJ | 2026-05-05 02:15 | NJDOT | 59 | 48 | 65 | 6 | |||||
| Piscataway 1 | NJ | 2026-05-05 02:20 | NJDOT | 59 | 48 | 66 | 4 | |||||
| Piscataway 1 | NJ | 2026-05-05 02:25 | NJDOT | 59 | 48 | 66 | 2 | |||||
| Piscataway 1 | NJ | 2026-05-05 02:30 | NJDOT | 59 | 48 | 67 | 0 | |||||
| Piscataway 1 | NJ | 2026-05-05 02:35 | NJDOT | 59 | 48 | 67 | 2 | |||||
| Piscataway 1 | NJ | 2026-05-05 02:40 | NJDOT | 59 | 48 | 67 | 2 | |||||
| Piscataway 1 | NJ | 2026-05-05 02:45 | NJDOT | 58 | 48 | 68 | 1 | |||||
| Piscataway 1 | NJ | 2026-05-05 02:50 | NJDOT | 58 | 48 | 69 | 0 | |||||
| Piscataway 1 | NJ | 2026-05-05 03:00 | NJDOT | 58 | 48 | 70 | 0 | |||||
| Piscataway 1 | NJ | 2026-05-05 03:05 | NJDOT | 58 | 48 | 71 | 0 | |||||
| Piscataway 1 | NJ | 2026-05-05 03:10 | NJDOT | 57 | 48 | 71 | 0 | |||||
| Piscataway 1 | NJ | 2026-05-05 18:05 | NJDOT | 82 | 41 | 22 | 22 |
data collection created in 0.036743879318237 (queried in 0.010640) rendered in: 0.00037503242492676

